Time;durP1;ratioP1;P1;durP2;ratioP2;P2;SDS_P1;SDS_P2;PMS_P1;PMS_P2;Temp;Humidity;BMP_temperature;BMP_pressure;BME280_temperature;BME280_humidity;BME280_pressure;Samples;Min_cycle;Max_cycle;Signal;HPM_P1;HPM_P2
2024/01/15 00:00:55;;;;;;;;;;;-1.60;99.90;;;;;;5102107;28;19897;-83
2024/01/15 00:26:39;;;;;;;;;;;-1.80;99.90;;;;;;5382595;22;19908;-79
2024/01/15 00:29:06;;;;;;;;;;;-1.20;99.90;;;;;;5118715;28;19908;-80
2024/01/15 00:31:32;;;;;;;;;;;-1.10;99.90;;;;;;5137075;28;19908;-79
2024/01/15 00:33:57;;;;;;;;;;;-1.40;99.90;;;;;;5117595;28;19915;-79
2024/01/15 00:36:23;;;;;;;;;;;-1.50;99.90;;;;;;5118003;28;19912;-79
2024/01/15 00:38:49;;;;;;;;;;;-1.30;99.90;;;;;;5136020;28;19975;-81
2024/01/15 00:41:15;;;;;;;;;;;-1.70;99.90;;;;;;5120991;28;19919;-81
2024/01/15 00:46:16;;;;;;;;;;;-1.60;99.90;;;;;;5860790;22;19924;-78
2024/01/15 00:48:41;;;;;;;;;;;-1.60;99.90;;;;;;5119119;28;19922;-84
2024/01/15 01:11:50;;;;;;;;;;;-1.40;99.90;;;;;;5649463;22;19908;-82
2024/01/15 01:14:16;;;;;;;;;;;-1.30;99.90;;;;;;5104515;28;19926;-82
2024/01/15 01:16:41;;;;;;;;;;;-1.30;99.90;;;;;;5121810;28;19908;-82
2024/01/15 01:19:07;;;;;;;;;;;-1.50;99.90;;;;;;5105566;28;19909;-83
2024/01/15 01:21:33;;;;;;;;;;;-1.10;99.90;;;;;;5084105;28;19927;-83
2024/01/15 01:23:59;;;;;;;;;;;-1.30;99.90;;;;;;5084339;28;19925;-83
2024/01/15 01:26:25;;;;;;;;;;;-1.00;99.90;;;;;;5084242;28;19923;-82
2024/01/15 01:28:50;;;;;;;;;;;-1.20;99.90;;;;;;5101646;28;19909;-84
2024/01/15 01:31:16;;;;;;;;;;;-1.20;99.90;;;;;;5101781;28;19913;-84
2024/01/15 01:33:42;;;;;;;;;;;-0.60;99.90;;;;;;5101893;28;19959;-84
2024/01/15 01:36:08;;;;;;;;;;;-0.50;99.90;;;;;;5084677;28;19903;-83
2024/01/15 01:38:34;;;;;;;;;;;-0.70;99.90;;;;;;5083816;28;19899;-83
2024/01/15 01:41:00;;;;;;;;;;;-0.80;99.90;;;;;;5084266;28;19913;-83
2024/01/15 01:43:25;;;;;;;;;;;-0.70;99.90;;;;;;5101464;28;19923;-84
2024/01/15 01:45:51;;;;;;;;;;;-1.00;99.90;;;;;;5100730;28;19920;-83
2024/01/15 01:48:17;;;;;;;;;;;-0.40;99.90;;;;;;5100937;28;19899;-80
2024/01/15 01:50:44;;;;;;;;;;;-0.50;99.90;;;;;;5082778;28;19924;-79
2024/01/15 01:53:10;;;;;;;;;;;-0.30;99.90;;;;;;5082254;28;20258;-82
2024/01/15 01:55:36;;;;;;;;;;;-0.30;99.90;;;;;;5099745;28;19915;-81
2024/01/15 01:58:01;;;;;;;;;;;-0.50;99.90;;;;;;5099197;28;19930;-83
2024/01/15 02:00:27;;;;;;;;;;;-0.40;99.90;;;;;;5099689;28;19908;-83
2024/01/15 02:02:53;;;;;;;;;;;-0.50;99.90;;;;;;5081093;28;19916;-82
2024/01/15 02:05:20;;;;;;;;;;;-0.40;99.90;;;;;;5099728;28;19955;-82
2024/01/15 02:07:46;;;;;;;;;;;-0.50;99.90;;;;;;5099298;28;19914;-82
2024/01/15 02:10:12;;;;;;;;;;;-0.40;99.90;;;;;;5099358;28;19909;-82
2024/01/15 02:12:37;;;;;;;;;;;-0.40;99.90;;;;;;5098659;28;19924;-80
2024/01/15 02:15:03;;;;;;;;;;;-0.40;99.90;;;;;;5099095;28;19893;-83
2024/01/15 02:17:29;;;;;;;;;;;-0.50;99.90;;;;;;5081414;28;19892;-82
2024/01/15 02:22:30;;;;;;;;;;;-0.50;99.90;;;;;;5640509;22;19908;-82
2024/01/15 02:24:56;;;;;;;;;;;0.10;99.90;;;;;;5081497;28;19985;-83
2024/01/15 02:27:21;;;;;;;;;;;-0.60;99.90;;;;;;5098595;28;19908;-83
2024/01/15 02:29:48;;;;;;;;;;;-0.70;99.90;;;;;;5081243;28;19947;-81
2024/01/15 02:32:13;;;;;;;;;;;-0.60;99.90;;;;;;5098878;28;19943;-83
2024/01/15 02:34:39;;;;;;;;;;;-0.80;99.90;;;;;;5081706;28;19901;-83
2024/01/15 02:37:05;;;;;;;;;;;-0.40;99.90;;;;;;5081946;28;19892;-83
2024/01/15 02:39:31;;;;;;;;;;;-0.40;99.90;;;;;;5081035;28;19931;-81
2024/01/15 02:41:57;;;;;;;;;;;-0.60;99.90;;;;;;5081521;28;19908;-82
2024/01/15 02:44:23;;;;;;;;;;;-0.50;99.90;;;;;;5099167;28;19966;-82
2024/01/15 02:46:49;;;;;;;;;;;0.00;99.90;;;;;;5081457;28;19920;-83
2024/01/15 02:49:14;;;;;;;;;;;-0.50;99.90;;;;;;5082152;28;19915;-83
2024/01/15 02:51:40;;;;;;;;;;;-0.10;99.90;;;;;;5099225;28;19920;-82
2024/01/15 02:54:06;;;;;;;;;;;-0.30;99.90;;;;;;5082298;28;19897;-83
2024/01/15 02:56:32;;;;;;;;;;;-0.30;99.90;;;;;;5098997;28;19893;-82
2024/01/15 02:58:57;;;;;;;;;;;-0.20;99.90;;;;;;5099192;28;19908;-82
2024/01/15 03:01:23;;;;;;;;;;;-0.40;99.90;;;;;;5078713;28;19919;-81
2024/01/15 03:03:48;;;;;;;;;;;0.00;99.90;;;;;;5094598;28;19920;-80
2024/01/15 03:06:14;;;;;;;;;;;-0.20;99.90;;;;;;5077021;28;20373;-81
2024/01/15 03:08:40;;;;;;;;;;;0.00;99.90;;;;;;5093983;28;20007;-79
2024/01/15 03:11:05;;;;;;;;;;;-0.30;99.90;;;;;;5076934;28;19935;-80
2024/01/15 03:13:31;;;;;;;;;;;-0.40;99.90;;;;;;5076412;28;19908;-81
2024/01/15 03:15:56;;;;;;;;;;;-0.80;99.90;;;;;;5094145;28;19916;-81
2024/01/15 03:18:22;;;;;;;;;;;0.10;99.90;;;;;;5080041;28;19908;-80
2024/01/15 03:20:48;;;;;;;;;;;-0.30;99.90;;;;;;5097989;28;19917;-83
2024/01/15 03:23:14;;;;;;;;;;;-0.20;99.90;;;;;;5098196;28;19920;-83
2024/01/15 03:25:39;;;;;;;;;;;0.10;99.90;;;;;;5098503;28;19916;-82
2024/01/15 03:38:28;;;;;;;;;;;0.20;99.90;;;;;;5394814;22;19928;-81
2024/01/15 03:40:54;;;;;;;;;;;0.30;99.90;;;;;;5079356;28;19892;-81
2024/01/15 03:43:19;;;;;;;;;;;0.20;99.90;;;;;;5096455;28;19931;-82
2024/01/15 03:45:45;;;;;;;;;;;-0.10;99.90;;;;;;5079941;28;19950;-83
2024/01/15 03:48:11;;;;;;;;;;;0.10;99.90;;;;;;5097888;28;19896;-83
2024/01/15 03:50:37;;;;;;;;;;;-0.10;99.90;;;;;;5097788;28;19909;-82
2024/01/15 03:53:03;;;;;;;;;;;-0.10;99.90;;;;;;5080199;28;19972;-82
2024/01/15 03:55:29;;;;;;;;;;;-0.20;99.90;;;;;;5080890;28;19900;-84
2024/01/15 03:57:54;;;;;;;;;;;0.40;99.90;;;;;;5080652;28;19904;-83
2024/01/15 04:00:20;;;;;;;;;;;-0.10;99.90;;;;;;5080761;28;20422;-83
2024/01/15 04:02:46;;;;;;;;;;;-0.10;99.90;;;;;;5080662;28;19912;-83
2024/01/15 04:05:12;;;;;;;;;;;0.00;99.90;;;;;;5080204;28;19916;-82
2024/01/15 04:07:37;;;;;;;;;;;-0.20;99.90;;;;;;5079951;28;19977;-82
2024/01/15 04:10:03;;;;;;;;;;;-0.20;99.90;;;;;;5079550;28;19908;-82
2024/01/15 04:12:29;;;;;;;;;;;-0.20;99.90;;;;;;5097592;28;19896;-82
2024/01/15 04:14:55;;;;;;;;;;;-0.10;99.90;;;;;;5079100;28;19893;-82
2024/01/15 04:17:21;;;;;;;;;;;0.20;99.90;;;;;;5080005;28;19992;-81
2024/01/15 04:19:48;;;;;;;;;;;-0.30;99.90;;;;;;5079485;28;19908;-83
2024/01/15 04:22:13;;;;;;;;;;;-0.30;99.90;;;;;;5079687;28;19892;-83
2024/01/15 04:24:39;;;;;;;;;;;-0.30;99.90;;;;;;5079823;28;19904;-83
2024/01/15 04:27:05;;;;;;;;;;;-0.50;99.90;;;;;;5097166;28;19908;-82
2024/01/15 04:29:31;;;;;;;;;;;-0.40;99.90;;;;;;5079702;28;19893;-83
2024/01/15 04:31:56;;;;;;;;;;;0.00;99.90;;;;;;5096863;28;19972;-82
2024/01/15 04:36:57;;;;;;;;;;;-0.40;99.90;;;;;;5480038;22;19935;-81
2024/01/15 04:39:23;;;;;;;;;;;-0.40;99.90;;;;;;5117113;28;19909;-82
2024/01/15 04:41:49;;;;;;;;;;;-0.30;99.90;;;;;;5116946;28;19898;-82
2024/01/15 04:44:15;;;;;;;;;;;-0.40;99.90;;;;;;5117234;28;19904;-83
2024/01/15 04:46:40;;;;;;;;;;;-0.70;99.90;;;;;;5098580;28;19930;-82
2024/01/15 04:49:06;;;;;;;;;;;-0.40;99.90;;;;;;5114431;28;19923;-81
2024/01/15 04:51:32;;;;;;;;;;;0.10;99.90;;;;;;5094846;28;19914;-80
2024/01/15 04:53:57;;;;;;;;;;;-0.40;99.90;;;;;;5094966;28;19912;-82
2024/01/15 04:58:58;;;;;;;;;;;-0.50;99.90;;;;;;5661679;22;19928;-81
2024/01/15 05:01:24;;;;;;;;;;;-0.60;99.90;;;;;;5139858;28;19932;-82
2024/01/15 05:03:50;;;;;;;;;;;-0.50;99.90;;;;;;5158755;28;19916;-83
2024/01/15 05:06:15;;;;;;;;;;;-1.00;99.90;;;;;;5155393;27;19911;-80
2024/01/15 05:08:41;;;;;;;;;;;-0.70;99.90;;;;;;5155752;28;19929;-80
2024/01/15 05:11:07;;;;;;;;;;;-1.30;99.90;;;;;;5140596;28;19914;-82
2024/01/15 05:13:33;;;;;;;;;;;-1.00;99.90;;;;;;5156708;28;19891;-82
2024/01/15 05:15:58;;;;;;;;;;;-1.10;99.90;;;;;;5149263;28;19912;-81
2024/01/15 05:18:24;;;;;;;;;;;-1.00;99.90;;;;;;5118862;28;19939;-81
2024/01/15 05:20:50;;;;;;;;;;;-1.20;99.90;;;;;;5137557;28;19908;-82
2024/01/15 05:23:16;;;;;;;;;;;-0.60;99.90;;;;;;5119914;28;19923;-83
2024/01/15 07:34:59;;;;;;;;;;;-2.00;99.90;;;;;;5688238;22;20007;-82
2024/01/15 07:37:25;;;;;;;;;;;-1.90;99.90;;;;;;5101479;28;19916;-83
2024/01/15 07:39:51;;;;;;;;;;;-1.90;99.90;;;;;;5101719;28;19915;-83
2024/01/15 07:42:17;;;;;;;;;;;-2.00;99.90;;;;;;5101989;28;19916;-82
2024/01/15 07:44:43;;;;;;;;;;;-1.90;99.90;;;;;;5098173;28;19904;-82
2024/01/15 07:47:10;;;;;;;;;;;-1.90;99.90;;;;;;5097862;28;20120;-82
2024/01/15 07:49:36;;;;;;;;;;;-1.70;99.90;;;;;;5098937;28;19912;-82
2024/01/15 07:52:02;;;;;;;;;;;-1.90;99.90;;;;;;5098651;28;19960;-83
2024/01/15 07:54:28;;;;;;;;;;;-2.30;99.90;;;;;;5101393;28;19919;-79
2024/01/15 07:56:57;;;;;;;;;;;-1.80;99.90;;;;;;5119052;28;19952;-81
2024/01/15 07:59:23;;;;;;;;;;;-1.80;99.90;;;;;;5101477;28;19899;-81
2024/01/15 08:01:49;;;;;;;;;;;-1.50;99.90;;;;;;5118843;28;19936;-83
2024/01/15 08:04:15;;;;;;;;;;;-0.80;99.90;;;;;;5118389;28;19904;-83
2024/01/15 08:06:41;;;;;;;;;;;-1.10;99.90;;;;;;5101353;28;19979;-84
2024/01/15 08:09:08;;;;;;;;;;;-0.40;99.90;;;;;;5101044;28;19892;-83
2024/01/15 08:11:34;;;;;;;;;;;0.50;99.90;;;;;;5101726;28;19939;-83
2024/01/15 08:14:00;;;;;;;;;;;1.30;99.90;;;;;;5305446;22;19925;-83
2024/01/15 08:16:27;;;;;;;;;;;1.50;99.90;;;;;;5073627;28;19913;-82
2024/01/15 08:18:53;;;;;;;;;;;1.60;99.90;;;;;;5056991;28;19916;-83
2024/01/15 08:21:19;;;;;;;;;;;2.20;99.90;;;;;;5057519;28;19910;-82
2024/01/15 08:23:44;;;;;;;;;;;3.10;99.90;;;;;;5055784;28;19926;-83
2024/01/15 08:26:10;;;;;;;;;;;2.20;99.90;;;;;;5055531;28;19968;-83
2024/01/15 08:28:36;;;;;;;;;;;2.80;99.90;;;;;;5055549;28;19893;-84
2024/01/15 08:31:02;;;;;;;;;;;2.80;99.90;;;;;;5056225;28;19893;-82
2024/01/15 08:33:28;;;;;;;;;;;2.80;99.90;;;;;;5055667;28;19913;-83
2024/01/15 08:35:54;;;;;;;;;;;2.70;99.90;;;;;;5074294;28;19980;-84
2024/01/15 08:38:20;;;;;;;;;;;2.90;99.90;;;;;;5057988;28;19913;-83
2024/01/15 08:40:46;;;;;;;;;;;2.70;99.90;;;;;;5058976;28;19909;-83
2024/01/15 08:43:12;;;;;;;;;;;2.10;99.90;;;;;;5075852;28;19956;-83
2024/01/15 08:45:38;;;;;;;;;;;2.50;99.90;;;;;;5056510;28;20031;-83
2024/01/15 08:48:04;;;;;;;;;;;1.90;99.90;;;;;;5058194;28;19916;-81
2024/01/15 08:50:30;;;;;;;;;;;1.40;99.90;;;;;;5057950;28;20357;-80
2024/01/15 08:52:55;;;;;;;;;;;2.50;99.90;;;;;;5075282;28;19909;-82
2024/01/15 08:55:22;;;;;;;;;;;2.20;99.90;;;;;;5076297;28;19967;-83
2024/01/15 08:57:48;;;;;;;;;;;2.10;99.90;;;;;;5057634;28;19915;-84
2024/01/15 09:00:14;;;;;;;;;;;2.20;99.90;;;;;;5075455;28;19955;-82
2024/01/15 09:02:40;;;;;;;;;;;2.30;99.90;;;;;;5057913;28;19909;-83
2024/01/15 09:05:06;;;;;;;;;;;2.10;99.90;;;;;;5076066;28;19913;-83
2024/01/15 09:07:32;;;;;;;;;;;2.40;99.90;;;;;;5057647;28;19909;-83
2024/01/15 09:09:59;;;;;;;;;;;2.50;99.90;;;;;;5075007;28;19972;-83
2024/01/15 09:12:25;;;;;;;;;;;2.90;99.90;;;;;;5058937;28;19909;-84
2024/01/15 09:14:51;;;;;;;;;;;2.60;99.90;;;;;;5061846;28;19917;-83
2024/01/15 09:17:17;;;;;;;;;;;2.60;99.90;;;;;;5061560;28;19984;-84
2024/01/15 09:19:44;;;;;;;;;;;2.80;99.90;;;;;;5079226;28;19920;-82
2024/01/15 09:22:09;;;;;;;;;;;3.30;99.90;;;;;;5061528;28;19909;-83
2024/01/15 09:24:35;;;;;;;;;;;3.10;99.90;;;;;;5060901;28;19967;-81
2024/01/15 09:27:01;;;;;;;;;;;2.90;99.90;;;;;;5061265;28;19939;-81
2024/01/15 09:29:26;;;;;;;;;;;2.90;98.70;;;;;;5060866;28;19951;-84
2024/01/15 09:31:52;;;;;;;;;;;3.20;97.60;;;;;;5060746;28;19908;-82
2024/01/15 09:34:18;;;;;;;;;;;2.90;97.70;;;;;;5060942;28;19972;-82
2024/01/15 09:36:44;;;;;;;;;;;3.00;95.50;;;;;;5061417;28;19892;-84
2024/01/15 09:39:10;;;;;;;;;;;3.10;95.00;;;;;;5078785;28;19913;-82
2024/01/15 09:41:36;;;;;;;;;;;3.90;94.20;;;;;;5078814;28;19909;-83
2024/01/15 09:44:05;;;;;;;;;;;3.20;93.90;;;;;;5061495;28;19921;-84
2024/01/15 09:46:35;;;;;;;;;;;3.30;93.40;;;;;;5078970;28;19913;-84
2024/01/15 09:49:01;;;;;;;;;;;3.40;92.90;;;;;;5060992;28;19955;-83
2024/01/15 09:51:30;;;;;;;;;;;3.40;93.00;;;;;;5061604;28;19900;-83
2024/01/15 09:53:57;;;;;;;;;;;3.70;92.20;;;;;;5060585;28;19943;-82
2024/01/15 09:56:23;;;;;;;;;;;4.40;91.70;;;;;;5060472;28;19893;-84
2024/01/15 09:58:51;;;;;;;;;;;4.10;91.00;;;;;;5077956;28;19908;-83
2024/01/15 10:01:16;;;;;;;;;;;4.60;91.30;;;;;;5078182;28;19916;-84
2024/01/15 10:03:42;;;;;;;;;;;4.10;90.60;;;;;;5078640;28;19897;-83
2024/01/15 10:06:09;;;;;;;;;;;3.80;90.00;;;;;;5060599;28;19913;-83
2024/01/15 10:08:36;;;;;;;;;;;4.30;88.50;;;;;;5060734;28;19909;-84
2024/01/15 10:11:03;;;;;;;;;;;4.70;88.90;;;;;;5061011;28;19908;-84
2024/01/15 10:13:30;;;;;;;;;;;4.40;87.20;;;;;;5077983;28;19920;-84
2024/01/15 10:15:56;;;;;;;;;;;4.60;86.30;;;;;;5060766;28;19908;-84
2024/01/15 10:18:22;;;;;;;;;;;4.60;86.60;;;;;;5060518;28;19915;-81
2024/01/15 10:20:47;;;;;;;;;;;4.60;87.70;;;;;;5078376;28;19909;-84
2024/01/15 10:23:14;;;;;;;;;;;4.70;86.80;;;;;;5077950;28;19913;-84
2024/01/15 10:25:41;;;;;;;;;;;4.60;86.60;;;;;;5061798;28;19917;-84
2024/01/15 10:28:07;;;;;;;;;;;4.80;87.20;;;;;;5061740;28;19932;-84
2024/01/15 10:30:33;;;;;;;;;;;4.70;85.90;;;;;;5078273;28;19909;-84
2024/01/15 10:33:00;;;;;;;;;;;4.80;84.30;;;;;;5059941;28;19916;-84
2024/01/15 10:35:30;;;;;;;;;;;5.10;82.90;;;;;;5060213;28;19893;-84
2024/01/15 10:37:56;;;;;;;;;;;4.80;82.00;;;;;;5077818;28;19909;-84
2024/01/15 10:40:22;;;;;;;;;;;5.00;82.10;;;;;;5077530;28;20384;-84
2024/01/15 10:42:48;;;;;;;;;;;5.20;79.30;;;;;;5060002;28;19908;-84
2024/01/15 10:45:14;;;;;;;;;;;4.70;77.70;;;;;;5059718;28;19939;-84
2024/01/15 10:47:41;;;;;;;;;;;4.70;78.90;;;;;;5059825;28;19913;-82
2024/01/15 10:50:10;;;;;;;;;;;4.90;80.00;;;;;;5060549;28;19992;-83
2024/01/15 10:52:36;;;;;;;;;;;4.90;79.40;;;;;;5077456;28;19931;-84
2024/01/15 10:55:03;;;;;;;;;;;4.80;79.90;;;;;;5077296;28;19909;-82
2024/01/15 10:57:29;;;;;;;;;;;4.80;79.70;;;;;;5059459;28;19960;-84
2024/01/15 10:59:54;;;;;;;;;;;4.80;78.20;;;;;;5077527;28;19976;-84
2024/01/15 11:02:20;;;;;;;;;;;4.70;78.00;;;;;;5060059;28;19909;-84
2024/01/15 11:04:46;;;;;;;;;;;4.70;78.80;;;;;;5059734;28;19919;-84
2024/01/15 11:07:13;;;;;;;;;;;4.70;77.90;;;;;;5059938;28;19913;-84
2024/01/15 11:09:39;;;;;;;;;;;4.70;77.80;;;;;;5059202;28;19909;-83
2024/01/15 11:12:09;;;;;;;;;;;5.40;77.40;;;;;;5060428;28;19916;-84
2024/01/15 11:14:44;;;;;;;;;;;4.70;77.60;;;;;;5076883;28;19904;-84
2024/01/15 11:17:11;;;;;;;;;;;4.70;77.50;;;;;;5059665;28;19901;-84
2024/01/15 11:19:39;;;;;;;;;;;4.70;77.60;;;;;;5058897;28;19916;-84
2024/01/15 11:22:06;;;;;;;;;;;4.80;77.80;;;;;;5059987;28;19908;-84
2024/01/15 11:24:38;;;;;;;;;;;4.80;78.50;;;;;;5076965;28;20027;-83
2024/01/15 11:27:05;;;;;;;;;;;4.90;78.10;;;;;;5059170;28;19913;-84
2024/01/15 11:29:34;;;;;;;;;;;4.90;78.10;;;;;;5076360;28;19916;-83
2024/01/15 11:32:07;;;;;;;;;;;4.80;77.10;;;;;;5077168;28;19916;-84
2024/01/15 11:34:51;;;;;;;;;;;5.00;76.20;;;;;;5059306;28;19893;-83
2024/01/15 11:37:18;;;;;;;;;;;4.90;76.30;;;;;;5060090;28;19909;-84
2024/01/15 11:39:43;;;;;;;;;;;4.10;77.40;;;;;;5077901;28;19912;-84
2024/01/15 11:42:10;;;;;;;;;;;4.70;77.70;;;;;;5077916;28;19952;-84
2024/01/15 11:44:39;;;;;;;;;;;4.70;77.80;;;;;;5076604;28;19913;-84
2024/01/15 11:47:07;;;;;;;;;;;4.20;78.20;;;;;;5076637;28;19916;-84
2024/01/15 11:49:52;;;;;;;;;;;4.30;78.50;;;;;;5059044;28;19908;-83
2024/01/15 11:52:18;;;;;;;;;;;4.80;78.90;;;;;;5059117;28;19893;-82
2024/01/15 11:54:53;;;;;;;;;;;4.30;78.40;;;;;;5059109;28;19916;-83
2024/01/15 11:57:25;;;;;;;;;;;4.20;79.90;;;;;;5059425;28;19912;-83
2024/01/15 11:59:51;;;;;;;;;;;4.10;79.70;;;;;;5059288;28;19908;-83
2024/01/15 12:02:16;;;;;;;;;;;4.00;79.50;;;;;;5059175;28;19939;-85
2024/01/15 12:04:42;;;;;;;;;;;4.20;79.90;;;;;;5059323;28;19943;-84
2024/01/15 12:07:08;;;;;;;;;;;4.10;80.60;;;;;;5076798;28;19909;-84
2024/01/15 12:09:34;;;;;;;;;;;4.00;80.60;;;;;;5059673;28;19916;-83
2024/01/15 12:12:07;;;;;;;;;;;4.10;80.40;;;;;;5058967;28;19908;-83
2024/01/15 12:14:34;;;;;;;;;;;4.10;81.00;;;;;;5058645;28;20057;-82
2024/01/15 12:17:00;;;;;;;;;;;4.00;81.60;;;;;;5059287;28;19970;-83
2024/01/15 12:19:26;;;;;;;;;;;4.00;81.90;;;;;;5076377;28;20274;-83
2024/01/15 12:21:52;;;;;;;;;;;4.10;81.90;;;;;;5058862;28;19909;-84
2024/01/15 12:24:17;;;;;;;;;;;4.70;83.20;;;;;;5058490;28;19963;-83
2024/01/15 12:26:44;;;;;;;;;;;4.00;82.20;;;;;;5058841;28;19954;-84
2024/01/15 12:29:11;;;;;;;;;;;4.20;81.00;;;;;;5059589;28;19953;-83
2024/01/15 12:31:36;;;;;;;;;;;4.10;81.20;;;;;;5075223;28;19955;-84
2024/01/15 12:34:02;;;;;;;;;;;4.10;81.80;;;;;;5075860;28;19968;-84
2024/01/15 12:36:30;;;;;;;;;;;4.30;82.30;;;;;;5075366;28;19915;-84
2024/01/15 12:38:59;;;;;;;;;;;3.60;82.50;;;;;;5076994;28;19908;-84
2024/01/15 12:41:25;;;;;;;;;;;4.00;82.50;;;;;;5076429;28;19893;-83
2024/01/15 12:43:51;;;;;;;;;;;4.60;83.20;;;;;;5058496;28;19935;-83
2024/01/15 12:46:16;;;;;;;;;;;4.00;82.50;;;;;;5059968;28;19917;-83
2024/01/15 12:48:42;;;;;;;;;;;4.00;83.20;;;;;;5064840;28;19917;-84
2024/01/15 12:51:08;;;;;;;;;;;4.00;84.00;;;;;;5064621;28;19909;-84
2024/01/15 12:53:33;;;;;;;;;;;4.40;82.20;;;;;;5082877;28;19913;-84
2024/01/15 12:56:00;;;;;;;;;;;3.60;81.60;;;;;;5081934;28;19909;-83
2024/01/15 12:58:26;;;;;;;;;;;4.00;81.30;;;;;;5064278;28;19893;-83
2024/01/15 13:00:52;;;;;;;;;;;3.50;81.60;;;;;;5064744;28;19909;-83
2024/01/15 13:03:18;;;;;;;;;;;3.90;82.20;;;;;;5063969;28;19893;-83
2024/01/15 13:05:45;;;;;;;;;;;4.10;82.20;;;;;;5082736;28;20011;-84
2024/01/15 13:08:10;;;;;;;;;;;3.90;82.00;;;;;;5065091;28;20003;-84
2024/01/15 13:10:36;;;;;;;;;;;3.90;81.80;;;;;;5064609;28;19913;-83
2024/01/15 13:13:02;;;;;;;;;;;4.00;82.70;;;;;;5064483;28;19913;-83
2024/01/15 13:15:28;;;;;;;;;;;4.00;83.20;;;;;;5082243;28;19904;-82
2024/01/15 13:17:54;;;;;;;;;;;4.30;83.10;;;;;;5082162;28;19908;-84
2024/01/15 13:20:19;;;;;;;;;;;3.90;83.20;;;;;;5064997;28;19909;-83
2024/01/15 13:22:45;;;;;;;;;;;4.40;83.70;;;;;;5082050;28;19908;-83
2024/01/15 13:25:11;;;;;;;;;;;3.90;83.10;;;;;;5082050;28;19935;-81
2024/01/15 13:27:37;;;;;;;;;;;3.80;83.00;;;;;;5081888;28;19913;-84
2024/01/15 13:30:03;;;;;;;;;;;3.90;83.70;;;;;;5065119;28;19916;-84
2024/01/15 13:32:29;;;;;;;;;;;3.90;84.40;;;;;;5064510;28;19909;-83
2024/01/15 13:34:55;;;;;;;;;;;3.90;85.10;;;;;;5064829;28;19915;-83
2024/01/15 13:37:21;;;;;;;;;;;3.90;85.80;;;;;;5064574;28;19909;-84
2024/01/15 13:39:47;;;;;;;;;;;3.90;86.10;;;;;;5064335;28;19909;-84
2024/01/15 13:42:12;;;;;;;;;;;3.80;85.90;;;;;;5064443;28;19968;-83
2024/01/15 13:44:38;;;;;;;;;;;3.80;86.30;;;;;;5064675;28;20549;-84
2024/01/15 13:49:48;;;;;;;;;;;3.80;86.80;;;;;;5081889;28;19938;-83
2024/01/15 13:52:15;;;;;;;;;;;3.90;86.60;;;;;;5081748;28;19900;-84
2024/01/15 13:54:40;;;;;;;;;;;3.70;86.70;;;;;;5082064;28;19908;-83
2024/01/15 13:57:06;;;;;;;;;;;4.20;87.20;;;;;;5065099;28;19893;-84
2024/01/15 13:59:32;;;;;;;;;;;4.20;87.20;;;;;;5061240;28;19893;-83
2024/01/15 14:01:58;;;;;;;;;;;3.90;86.30;;;;;;5061389;28;19915;-84
2024/01/15 14:04:24;;;;;;;;;;;3.60;86.90;;;;;;5079031;28;19896;-83
2024/01/15 14:06:50;;;;;;;;;;;3.70;87.50;;;;;;5061521;28;19897;-82
2024/01/15 14:09:16;;;;;;;;;;;3.60;87.40;;;;;;5062236;28;19951;-84
2024/01/15 14:11:41;;;;;;;;;;;3.70;87.00;;;;;;5079102;28;19909;-84
2024/01/15 14:14:09;;;;;;;;;;;3.60;87.50;;;;;;5061279;28;19924;-83
2024/01/15 14:16:34;;;;;;;;;;;3.20;87.60;;;;;;5079067;28;19912;-83
2024/01/15 14:19:02;;;;;;;;;;;3.50;87.90;;;;;;5061853;28;19931;-85
2024/01/15 14:21:28;;;;;;;;;;;3.30;87.50;;;;;;5062133;28;19952;-84
2024/01/15 14:23:53;;;;;;;;;;;3.40;87.00;;;;;;5062000;28;19939;-83
2024/01/15 14:26:19;;;;;;;;;;;3.50;86.90;;;;;;5062459;28;19952;-83
2024/01/15 14:28:47;;;;;;;;;;;3.40;87.00;;;;;;5062185;28;19893;-84
2024/01/15 14:31:12;;;;;;;;;;;3.00;87.50;;;;;;5061765;28;20000;-83
2024/01/15 14:33:39;;;;;;;;;;;3.30;88.80;;;;;;5062051;28;19909;-84
2024/01/15 14:36:05;;;;;;;;;;;3.20;89.40;;;;;;5079086;28;19893;-83
2024/01/15 14:38:30;;;;;;;;;;;3.10;89.90;;;;;;5061661;28;19905;-84
2024/01/15 14:40:56;;;;;;;;;;;2.70;90.10;;;;;;5079802;28;19900;-84
2024/01/15 14:43:22;;;;;;;;;;;3.30;90.50;;;;;;5061405;28;19927;-84
2024/01/15 14:45:47;;;;;;;;;;;2.90;90.50;;;;;;5079226;28;19901;-84
2024/01/15 14:48:13;;;;;;;;;;;2.70;90.60;;;;;;5062414;28;19944;-84
2024/01/15 14:50:40;;;;;;;;;;;2.60;90.80;;;;;;5063068;28;19968;-84
2024/01/15 14:53:05;;;;;;;;;;;2.70;90.90;;;;;;5080638;28;19916;-84
2024/01/15 14:55:32;;;;;;;;;;;2.40;91.10;;;;;;5062874;28;19960;-83
2024/01/15 14:57:58;;;;;;;;;;;2.40;91.40;;;;;;5079643;28;19917;-84
2024/01/15 15:00:23;;;;;;;;;;;2.20;91.60;;;;;;5078904;28;19916;-84
2024/01/15 15:02:49;;;;;;;;;;;2.20;91.90;;;;;;5078836;28;19897;-84
2024/01/15 15:05:16;;;;;;;;;;;2.00;92.10;;;;;;5061584;28;19917;-82
2024/01/15 15:07:43;;;;;;;;;;;2.10;92.50;;;;;;5079172;28;20456;-84
2024/01/15 15:10:09;;;;;;;;;;;2.00;92.90;;;;;;5060360;28;20282;-85
2024/01/15 15:12:34;;;;;;;;;;;1.90;93.30;;;;;;5061606;28;19900;-84
2024/01/15 15:15:00;;;;;;;;;;;1.90;93.70;;;;;;5061223;28;19971;-83
2024/01/15 15:17:26;;;;;;;;;;;1.30;94.00;;;;;;5061330;28;19913;-83
2024/01/15 15:19:55;;;;;;;;;;;1.70;94.50;;;;;;5061008;28;19909;-83
2024/01/15 15:22:21;;;;;;;;;;;2.00;95.00;;;;;;5061257;28;19915;-85
2024/01/15 15:24:47;;;;;;;;;;;1.50;95.40;;;;;;5061454;28;19948;-83
2024/01/15 15:27:12;;;;;;;;;;;1.50;95.90;;;;;;5078664;28;19904;-84
2024/01/15 15:29:38;;;;;;;;;;;1.50;96.40;;;;;;5061171;28;19893;-84
2024/01/15 15:32:04;;;;;;;;;;;1.00;96.50;;;;;;5060622;28;19900;-84
2024/01/15 15:34:30;;;;;;;;;;;1.30;97.00;;;;;;5060655;28;19968;-84
2024/01/15 15:36:56;;;;;;;;;;;1.30;97.30;;;;;;5060828;28;19900;-84
2024/01/15 15:39:21;;;;;;;;;;;1.20;97.60;;;;;;5060363;28;19928;-83
2024/01/15 15:41:48;;;;;;;;;;;1.20;98.00;;;;;;5060607;28;19975;-85
2024/01/15 15:44:16;;;;;;;;;;;1.00;98.50;;;;;;5060577;28;19916;-83
2024/01/15 15:46:42;;;;;;;;;;;0.90;98.80;;;;;;5060762;28;19904;-84
2024/01/15 15:49:08;;;;;;;;;;;1.00;98.90;;;;;;5059972;28;19909;-83
2024/01/15 15:51:35;;;;;;;;;;;1.00;99.10;;;;;;5077370;28;19935;-83
2024/01/15 15:54:01;;;;;;;;;;;0.90;99.50;;;;;;5078031;28;19900;-84
2024/01/15 15:56:27;;;;;;;;;;;0.90;99.50;;;;;;5060959;28;19972;-83
2024/01/15 15:58:53;;;;;;;;;;;0.90;99.60;;;;;;5060362;28;19908;-84
2024/01/15 16:01:18;;;;;;;;;;;1.30;99.90;;;;;;5078012;28;19909;-84
2024/01/15 16:03:45;;;;;;;;;;;1.00;99.90;;;;;;5060468;28;19919;-84
2024/01/15 16:06:11;;;;;;;;;;;0.90;99.90;;;;;;5060552;28;19900;-84
2024/01/15 16:08:36;;;;;;;;;;;0.80;99.90;;;;;;5060333;28;19980;-84
2024/01/15 16:11:02;;;;;;;;;;;0.80;99.90;;;;;;5077939;28;19958;-83
2024/01/15 16:13:28;;;;;;;;;;;0.80;99.90;;;;;;5060273;28;19917;-84
2024/01/15 16:15:54;;;;;;;;;;;0.80;99.90;;;;;;5061073;28;19992;-82
2024/01/15 16:18:19;;;;;;;;;;;0.80;99.90;;;;;;5060297;28;19893;-83
2024/01/15 16:20:45;;;;;;;;;;;1.00;99.90;;;;;;5060052;28;19921;-83
2024/01/15 16:23:11;;;;;;;;;;;1.20;99.90;;;;;;5060258;28;19964;-82
2024/01/15 16:25:37;;;;;;;;;;;0.70;99.90;;;;;;5077596;28;19943;-82
2024/01/15 16:28:04;;;;;;;;;;;0.80;99.90;;;;;;5077980;28;19927;-83
2024/01/15 16:30:29;;;;;;;;;;;0.80;99.90;;;;;;5060418;28;19893;-83
2024/01/15 16:32:55;;;;;;;;;;;1.40;99.90;;;;;;5077580;28;19900;-84
2024/01/15 16:35:21;;;;;;;;;;;1.00;99.90;;;;;;5059603;28;19900;-83
2024/01/15 16:37:47;;;;;;;;;;;1.10;99.90;;;;;;5077112;28;19943;-83
2024/01/15 16:40:12;;;;;;;;;;;1.40;99.90;;;;;;5060310;28;19936;-83
2024/01/15 16:42:38;;;;;;;;;;;1.40;99.90;;;;;;5060111;28;19900;-83
2024/01/15 16:45:05;;;;;;;;;;;1.60;99.80;;;;;;5060110;28;19947;-84
2024/01/15 16:47:30;;;;;;;;;;;1.50;99.30;;;;;;5077697;28;19997;-83
2024/01/15 16:49:56;;;;;;;;;;;1.90;99.10;;;;;;5077047;28;19904;-82
2024/01/15 16:52:22;;;;;;;;;;;1.70;98.70;;;;;;5059769;28;19909;-84
2024/01/15 16:54:48;;;;;;;;;;;2.10;98.60;;;;;;5077541;28;19893;-83
2024/01/15 16:57:13;;;;;;;;;;;2.10;98.50;;;;;;5076788;28;19971;-84
2024/01/15 16:59:39;;;;;;;;;;;1.90;98.20;;;;;;5059247;28;19931;-84
2024/01/15 17:02:05;;;;;;;;;;;1.80;98.20;;;;;;5077521;28;19916;-84
2024/01/15 17:04:31;;;;;;;;;;;1.80;98.20;;;;;;5060752;28;19917;-84
2024/01/15 17:06:56;;;;;;;;;;;1.90;98.20;;;;;;5076833;28;19913;-83
2024/01/15 17:20:12;;;;;;;;;;;1.90;98.70;;;;;;5439040;22;19924;-83
2024/01/15 17:22:37;;;;;;;;;;;1.90;98.80;;;;;;5116908;28;19934;-83
2024/01/15 17:25:05;;;;;;;;;;;1.80;98.90;;;;;;5115646;28;19951;-83
2024/01/15 17:35:17;;;;;;;;;;;1.80;99.70;;;;;;5267837;22;19934;-83
2024/01/15 17:37:42;;;;;;;;;;;1.80;99.80;;;;;;5122431;28;19908;-82
2024/01/15 17:40:09;;;;;;;;;;;1.80;99.90;;;;;;5139310;28;19915;-83
2024/01/15 17:42:35;;;;;;;;;;;1.70;99.90;;;;;;5139091;28;19963;-83
2024/01/15 17:45:00;;;;;;;;;;;1.70;99.90;;;;;;5121525;28;19912;-82
2024/01/15 17:55:27;;;;;;;;;;;1.70;99.90;;;;;;5671538;22;19909;-84
2024/01/15 17:57:53;;;;;;;;;;;1.60;99.90;;;;;;5082144;28;19917;-84
2024/01/15 18:00:25;;;;;;;;;;;2.10;99.90;;;;;;5699964;22;19921;-84
2024/01/15 18:05:26;;;;;;;;;;;1.50;99.90;;;;;;5229219;22;19925;-84